sensor_id;sensor_type;location;lat;lon;timestamp;pressure;altitude;pressure_sealevel;temperature;humidity
9235;BME280;4652;42.716;23.218;2023-02-22T00:03:48;94723.63;;;6.58;64.56
9235;BME280;4652;42.716;23.218;2023-02-22T00:10:32;94779.78;;;6.42;66.75
9235;BME280;4652;42.716;23.218;2023-02-22T00:17:14;94782.19;;;5.77;68.83
9235;BME280;4652;42.716;23.218;2023-02-22T00:23:56;94773.84;;;5.21;73.43
9235;BME280;4652;42.716;23.218;2023-02-22T00:30:40;94774.88;;;5.15;75.27
9235;BME280;4652;42.716;23.218;2023-02-22T00:37:23;94754.25;;;4.69;75.38
9235;BME280;4652;42.716;23.218;2023-02-22T00:44:05;94769.50;;;4.47;81.95
9235;BME280;4652;42.716;23.218;2023-02-22T00:50:48;94769.50;;;4.47;81.95
9235;BME280;4652;42.716;23.218;2023-02-22T00:57:35;94750.31;;;4.23;85.40
9235;BME280;4652;42.716;23.218;2023-02-22T01:04:17;94752.84;;;4.35;86.32
9235;BME280;4652;42.716;23.218;2023-02-22T01:11:00;94717.16;;;4.36;85.72
9235;BME280;4652;42.716;23.218;2023-02-22T01:17:42;94739.75;;;4.60;83.93
9235;BME280;4652;42.716;23.218;2023-02-22T01:24:24;94727.78;;;4.62;84.13
9235;BME280;4652;42.716;23.218;2023-02-22T01:31:08;94739.44;;;4.83;83.43
9235;BME280;4652;42.716;23.218;2023-02-22T01:37:51;94742.69;;;4.95;85.31
9235;BME280;4652;42.716;23.218;2023-02-22T01:44:35;94743.16;;;4.87;84.39
9235;BME280;4652;42.716;23.218;2023-02-22T01:51:22;94741.66;;;4.64;84.98
9235;BME280;4652;42.716;23.218;2023-02-22T01:58:07;94740.03;;;4.58;86.86
9235;BME280;4652;42.716;23.218;2023-02-22T02:08:26;94738.66;;;4.29;86.67
9235;BME280;4652;42.716;23.218;2023-02-22T02:15:20;94736.78;;;4.25;88.99
9235;BME280;4652;42.716;23.218;2023-02-22T02:22:12;94740.97;;;4.21;88.22
9235;BME280;4652;42.716;23.218;2023-02-22T02:29:26;94744.16;;;3.69;88.87
9235;BME280;4652;42.716;23.218;2023-02-22T02:36:18;94745.69;;;3.43;91.04
9235;BME280;4652;42.716;23.218;2023-02-22T02:43:05;94753.97;;;3.47;93.93
9235;BME280;4652;42.716;23.218;2023-02-22T02:49:54;94757.25;;;3.54;95.82
9235;BME280;4652;42.716;23.218;2023-02-22T02:56:41;94770.41;;;3.22;95.19
9235;BME280;4652;42.716;23.218;2023-02-22T03:03:50;94762.94;;;3.03;97.12
9235;BME280;4652;42.716;23.218;2023-02-22T03:10:49;94768.47;;;3.18;99.65
9235;BME280;4652;42.716;23.218;2023-02-22T03:17:42;94756.19;;;3.33;98.84
9235;BME280;4652;42.716;23.218;2023-02-22T03:24:30;94762.28;;;3.50;97.43
9235;BME280;4652;42.716;23.218;2023-02-22T08:18:40;94754.56;;;25.96;31.08
9235;BME280;4652;42.716;23.218;2023-02-22T08:25:25;94742.91;;;26.45;30.83
9235;BME280;4652;42.716;23.218;2023-02-22T08:32:07;94765.22;;;25.36;31.96
9235;BME280;4652;42.716;23.218;2023-02-22T08:38:50;94749.13;;;23.76;33.51
9235;BME280;4652;42.716;23.218;2023-02-22T08:45:33;94762.34;;;19.60;38.63
9235;BME280;4652;42.716;23.218;2023-02-22T08:52:14;94759.69;;;17.82;41.87
9235;BME280;4652;42.716;23.218;2023-02-22T08:58:58;94769.38;;;16.67;44.37
9235;BME280;4652;42.716;23.218;2023-02-22T09:05:40;94766.56;;;16.84;44.72
9235;BME280;4652;42.716;23.218;2023-02-22T09:12:22;94752.75;;;16.89;44.87
9235;BME280;4652;42.716;23.218;2023-02-22T09:19:06;94742.53;;;16.86;44.67
9235;BME280;4652;42.716;23.218;2023-02-22T09:25:49;94747.56;;;16.96;45.15
9235;BME280;4652;42.716;23.218;2023-02-22T09:32:31;94751.66;;;16.53;45.82
9235;BME280;4652;42.716;23.218;2023-02-22T09:39:15;94733.72;;;16.60;46.03
9235;BME280;4652;42.716;23.218;2023-02-22T09:46:15;94715.25;;;17.16;45.07
9235;BME280;4652;42.716;23.218;2023-02-22T09:53:02;94722.56;;;17.03;44.88
9235;BME280;4652;42.716;23.218;2023-02-22T09:59:52;94721.97;;;17.51;44.78
9235;BME280;4652;42.716;23.218;2023-02-22T10:06:38;94709.69;;;18.10;43.56
9235;BME280;4652;42.716;23.218;2023-02-22T10:13:29;94697.38;;;17.92;43.48
9235;BME280;4652;42.716;23.218;2023-02-22T10:20:23;94679.38;;;16.81;45.24
9235;BME280;4652;42.716;23.218;2023-02-22T10:27:17;94662.00;;;17.27;43.84
9235;BME280;4652;42.716;23.218;2023-02-22T10:34:03;94669.94;;;17.97;43.09
9235;BME280;4652;42.716;23.218;2023-02-22T10:40:51;94667.16;;;17.73;43.43
9235;BME280;4652;42.716;23.218;2023-02-22T10:47:34;94635.59;;;17.60;44.31
9235;BME280;4652;42.716;23.218;2023-02-22T10:54:23;94618.16;;;17.85;42.76
9235;BME280;4652;42.716;23.218;2023-02-22T11:01:20;94622.25;;;18.28;41.89
9235;BME280;4652;42.716;23.218;2023-02-22T11:08:23;94602.50;;;17.94;41.96
9235;BME280;4652;42.716;23.218;2023-02-22T11:15:26;94597.72;;;17.67;41.98
9235;BME280;4652;42.716;23.218;2023-02-22T11:22:12;94582.59;;;17.57;41.49
9235;BME280;4652;42.716;23.218;2023-02-22T11:28:55;94574.56;;;18.09;42.16
9235;BME280;4652;42.716;23.218;2023-02-22T11:35:47;94575.00;;;18.36;40.84
9235;BME280;4652;42.716;23.218;2023-02-22T11:42:33;94562.28;;;18.03;40.63
9235;BME280;4652;42.716;23.218;2023-02-22T11:49:15;94577.16;;;18.30;42.10
9235;BME280;4652;42.716;23.218;2023-02-22T11:56:11;94548.19;;;18.26;40.51
9235;BME280;4652;42.716;23.218;2023-02-22T12:03:15;94550.44;;;18.48;41.16
9235;BME280;4652;42.716;23.218;2023-02-22T12:10:14;94512.31;;;18.24;39.79
9235;BME280;4652;42.716;23.218;2023-02-22T12:17:13;94538.88;;;18.27;40.78
9235;BME280;4652;42.716;23.218;2023-02-22T12:24:03;94550.47;;;18.24;39.98
9235;BME280;4652;42.716;23.218;2023-02-22T12:30:51;94518.47;;;18.08;42.14
9235;BME280;4652;42.716;23.218;2023-02-22T12:37:49;94526.34;;;18.38;41.16
9235;BME280;4652;42.716;23.218;2023-02-22T12:44:36;94505.22;;;18.35;40.95
9235;BME280;4652;42.716;23.218;2023-02-22T12:51:26;94523.63;;;18.38;39.45
9235;BME280;4652;42.716;23.218;2023-02-22T12:58:18;94463.81;;;17.77;39.38
9235;BME280;4652;42.716;23.218;2023-02-22T13:05:12;94516.44;;;18.05;39.35
9235;BME280;4652;42.716;23.218;2023-02-22T13:12:01;94508.22;;;18.17;39.54
9235;BME280;4652;42.716;23.218;2023-02-22T13:18:49;94508.81;;;18.11;40.40
9235;BME280;4652;42.716;23.218;2023-02-22T13:25:42;94498.72;;;18.11;41.09
9235;BME280;4652;42.716;23.218;2023-02-22T13:32:39;94449.50;;;17.68;41.03
9235;BME280;4652;42.716;23.218;2023-02-22T13:39:46;94477.22;;;17.70;41.69
9235;BME280;4652;42.716;23.218;2023-02-22T13:47:08;94477.66;;;17.72;42.14
9235;BME280;4652;42.716;23.218;2023-02-22T13:53:56;94430.44;;;17.32;41.98
9235;BME280;4652;42.716;23.218;2023-02-22T14:18:41;94497.63;;;17.88;42.95
9235;BME280;4652;42.716;23.218;2023-02-22T14:25:32;94509.44;;;17.56;43.83
9235;BME280;4652;42.716;23.218;2023-02-22T14:32:15;94493.53;;;17.34;44.03
9235;BME280;4652;42.716;23.218;2023-02-22T14:39:05;94491.34;;;17.27;43.58
9235;BME280;4652;42.716;23.218;2023-02-22T14:45:52;94485.31;;;16.97;44.24
9235;BME280;4652;42.716;23.218;2023-02-22T14:52:37;94490.03;;;16.88;45.40
9235;BME280;4652;42.716;23.218;2023-02-22T14:59:23;94483.97;;;16.71;45.61
9235;BME280;4652;42.716;23.218;2023-02-22T15:06:06;94488.63;;;16.70;46.17
9235;BME280;4652;42.716;23.218;2023-02-22T15:12:57;94477.75;;;16.50;46.43
9235;BME280;4652;42.716;23.218;2023-02-22T15:19:51;94489.53;;;16.62;46.48
9235;BME280;4652;42.716;23.218;2023-02-22T15:26:36;94481.88;;;16.35;46.90
9235;BME280;4652;42.716;23.218;2023-02-22T15:33:19;94499.34;;;16.34;47.21
9235;BME280;4652;42.716;23.218;2023-02-22T15:40:13;94487.31;;;15.94;48.05
9235;BME280;4652;42.716;23.218;2023-02-22T15:46:56;94494.56;;;15.60;48.69
9235;BME280;4652;42.716;23.218;2023-02-22T15:53:41;94500.44;;;15.33;49.11
9235;BME280;4652;42.716;23.218;2023-02-22T21:05:25;94657.06;;;5.49;nan
9235;BME280;4652;42.716;23.218;2023-02-22T21:12:07;94654.63;;;5.42;nan
9235;BME280;4652;42.716;23.218;2023-02-22T21:18:54;94635.63;;;5.28;nan
9235;BME280;4652;42.716;23.218;2023-02-22T21:25:49;94669.31;;;5.40;nan
9235;BME280;4652;42.716;23.218;2023-02-22T21:32:31;94649.25;;;5.32;nan
9235;BME280;4652;42.716;23.218;2023-02-22T21:39:13;94651.34;;;5.25;nan
9235;BME280;4652;42.716;23.218;2023-02-22T21:46:02;94636.13;;;5.20;nan
9235;BME280;4652;42.716;23.218;2023-02-22T21:52:45;94628.91;;;5.16;nan
9235;BME280;4652;42.716;23.218;2023-02-22T21:59:27;94634.72;;;5.08;nan
9235;BME280;4652;42.716;23.218;2023-02-22T22:06:11;94630.91;;;4.89;nan
9235;BME280;4652;42.716;23.218;2023-02-22T22:12:54;94644.16;;;4.84;nan
9235;BME280;4652;42.716;23.218;2023-02-22T22:19:38;94652.56;;;5.02;nan
9235;BME280;4652;42.716;23.218;2023-02-22T22:26:22;94665.75;;;4.77;nan
9235;BME280;4652;42.716;23.218;2023-02-22T22:33:05;94660.81;;;4.59;nan
9235;BME280;4652;42.716;23.218;2023-02-22T22:39:50;94659.59;;;4.40;nan
9235;BME280;4652;42.716;23.218;2023-02-22T22:46:34;94638.44;;;4.28;nan
9235;BME280;4652;42.716;23.218;2023-02-22T22:53:19;94638.84;;;4.10;nan
9235;BME280;4652;42.716;23.218;2023-02-22T23:00:01;94655.63;;;4.10;nan
9235;BME280;4652;42.716;23.218;2023-02-22T23:07:06;94664.66;;;4.09;nan
9235;BME280;4652;42.716;23.218;2023-02-22T23:13:48;94656.69;;;4.09;nan
9235;BME280;4652;42.716;23.218;2023-02-22T23:20:30;94655.75;;;3.94;nan
9235;BME280;4652;42.716;23.218;2023-02-22T23:27:17;94657.72;;;3.82;nan
9235;BME280;4652;42.716;23.218;2023-02-22T23:33:58;94671.19;;;3.70;nan
9235;BME280;4652;42.716;23.218;2023-02-22T23:40:46;94663.16;;;3.65;nan
9235;BME280;4652;42.716;23.218;2023-02-22T23:47:29;94661.16;;;3.50;nan
9235;BME280;4652;42.716;23.218;2023-02-22T23:54:13;94647.34;;;3.10;nan
